CYDLPAJN

Guest
Details From CYDL - DEASE LAKE
To PAJN - Juneau Intl
Flight Number -
Tags generated
Created
Modified
Stats Distance 217 nm / 402 km
Max Altitude 16,400 ft / 4,999 m
Waypoints 4
Social Downloads 0
Likes 0
Share VATSIM

Download

Looking for another format? Having issues loading an existing format? Contact us
Advertisement - Login to hide

Notes

Basic altitude profile: - Ascent Rate: 1000ft/min - Ascent Speed: 120kts - Cruise Altitude: 12000ft - Cruise Speed: 180kts - Descent Rate: 1000ft/min - Descent Speed: 150kts Options: - Use NATs: yes - Use PACOTS: yes - Use low airways: yes - Use high airways: no

Route

CYDL YDL BR29 YSQ PAJN

ID Type Via Altitude Latitude Longitude Leg Dist Tot Dist Heading (true) Name
O CYDL APT - 0 ft / 0 m 58.42222˚ -130.03222˚ - 0 nm - DEASE LAKE
YDL NDB - 700 ft / 213 m 58.45378˚ -129.99619˚ 2 nm 2 nm 31° / 31° DEASE LAKE NDB
YSQ NDB BR29 (AWY-LO) 16,400 ft / 4,999 m 59.62600˚ -133.67700˚ 133 nm 135 nm 303° / 300° ATLIN NDB
O PAJN APT - 0 ft / 0 m 58.35496˚ -134.57628˚ 81 nm 217 nm 200° / 200° Juneau Intl

Altitude Profile

Advertisement - Login to hide

Weather


0- 5 10 15 20 25 30 35+ Temperature / ° C

Clouds and Precipitation
Forecast for 2017-12-14 18:00 UTC. Updated 18 minutes ago

Ground ~20,000 ft ~40,000 ft Winds

CYDL

Details ICAO CYDL (YDL)
Name DEASE LAKE
Region Canada
Timezone America/Vancouver (UTC-8.0)
Stats Elevation 2,600 ft / 792 m (AMSL)
Location 58.422221° -130.032216°
Runways 1
Magnetic Variation 19.352° E

METAR

CYDL 141300Z AUTO 23003KT 9SM BKN055 OVC073 M00/M01 A2990 RMK SLP155

Decode

TAF

Not found

Departure Runways

ID Width Length Bearing (true) Bearing (mag) Surface Threshold Offset Overrun Length
02 90 ft / 27 m 6,025 ft / 1,837 m 47.71° 28.36° Asphalt 0 ft / 0 m 0 ft / 0 m
20 90 ft / 27 m 6,025 ft / 1,837 m 227.73° 208.38° Asphalt 400 ft / 122 m 0 ft / 0 m

PAJN

Details ICAO PAJN (JNU)
Name Juneau Intl
Region USA (Alaska)
Timezone America/Juneau (UTC-9.0)
Stats Elevation 21 ft / 6 m (AMSL)
Location 58.354964° -134.576278°
Runways 1
Magnetic Variation 19.148° E

METAR

PAJN 141253Z 12022G34KT 3SM RA BR FEW011 BKN030 OVC039 07/07 A2981

Decode

TAF

TAF PAJN 141140Z 1412/1512 12018G28KT 5SM -RA BR FEW018 BKN030 OVC040 WS020/14040KT TEMPO 1412/1416 3SM RA BR SCT005 BKN020 OVC030 FM141600 11020G30KT 3SM RA BR OVC015 WS020/14040KT FM142200 11015G25KT 4SM -SHRA BR OVC030 WS020/21030KT FM150600 11015KT 6SM -SHRA BR SCT030 OVC050

Decode

Destination Runways

ID Width Length Bearing (true) Bearing (mag) Surface Threshold Offset Overrun Length
08 150 ft / 46 m 8,430 ft / 2,570 m 104.87° 85.72° Asphalt 0 ft / 0 m 450 ft / 137 m
26 150 ft / 46 m 8,430 ft / 2,570 m 284.90° 265.75° Asphalt 0 ft / 0 m 225 ft / 69 m

Approach Navaids

Runway Type Ident Frequency Range Bearing (true) Bearing (mag) Slope Elevation
08 Localiser IJDL 109.90 MHz 18 nm / 33 km 84.92° 65.77° - 21 ft / 6 m (AMSL)
08 DME IJDL 109.90 MHz 18 nm / 33 km - - - 175 ft / 53 m (AMSL)